sensor_id;sensor_type;location;lat;lon;timestamp;P1;durP1;ratioP1;P2;durP2;ratioP2
19675;SDS011;39539;52.202;9.876;2023-01-06T00:28:27;9.43;;;7.00;;
19675;SDS011;39539;52.202;9.876;2023-01-06T00:30:53;10.57;;;7.88;;
19675;SDS011;39539;52.202;9.876;2023-01-06T00:33:18;8.73;;;7.28;;
19675;SDS011;39539;52.202;9.876;2023-01-06T00:35:43;10.32;;;6.55;;
19675;SDS011;39539;52.202;9.876;2023-01-06T00:38:09;7.22;;;6.55;;
19675;SDS011;39539;52.202;9.876;2023-01-06T00:40:35;8.52;;;6.78;;
19675;SDS011;39539;52.202;9.876;2023-01-06T00:43:01;8.05;;;6.55;;
19675;SDS011;39539;52.202;9.876;2023-01-06T00:45:27;8.88;;;6.25;;
19675;SDS011;39539;52.202;9.876;2023-01-06T00:47:52;8.48;;;6.03;;
19675;SDS011;39539;52.202;9.876;2023-01-06T00:50:18;6.38;;;5.72;;
19675;SDS011;39539;52.202;9.876;2023-01-06T00:52:44;7.05;;;5.93;;
19675;SDS011;39539;52.202;9.876;2023-01-06T00:55:12;5.47;;;4.95;;
19675;SDS011;39539;52.202;9.876;2023-01-06T00:57:37;6.88;;;5.97;;
19675;SDS011;39539;52.202;9.876;2023-01-06T01:00:03;8.07;;;5.75;;
19675;SDS011;39539;52.202;9.876;2023-01-06T01:02:29;8.32;;;5.13;;
19675;SDS011;39539;52.202;9.876;2023-01-06T01:04:55;6.40;;;5.80;;
19675;SDS011;39539;52.202;9.876;2023-01-06T01:07:20;6.30;;;5.75;;
19675;SDS011;39539;52.202;9.876;2023-01-06T01:09:45;8.82;;;6.30;;
19675;SDS011;39539;52.202;9.876;2023-01-06T01:12:11;6.25;;;5.65;;
19675;SDS011;39539;52.202;9.876;2023-01-06T01:17:24;7.00;;;6.07;;
19675;SDS011;39539;52.202;9.876;2023-01-06T01:19:51;8.93;;;6.05;;
19675;SDS011;39539;52.202;9.876;2023-01-06T01:22:19;6.68;;;5.97;;
19675;SDS011;39539;52.202;9.876;2023-01-06T01:24:45;8.18;;;5.78;;
19675;SDS011;39539;52.202;9.876;2023-01-06T01:27:11;9.32;;;6.03;;
19675;SDS011;39539;52.202;9.876;2023-01-06T01:29:36;7.97;;;6.40;;
19675;SDS011;39539;52.202;9.876;2023-01-06T01:32:01;7.82;;;5.90;;
19675;SDS011;39539;52.202;9.876;2023-01-06T01:34:27;9.13;;;6.15;;
19675;SDS011;39539;52.202;9.876;2023-01-06T01:36:53;7.82;;;6.05;;
19675;SDS011;39539;52.202;9.876;2023-01-06T01:39:21;6.65;;;6.03;;
19675;SDS011;39539;52.202;9.876;2023-01-06T01:41:48;7.45;;;6.32;;
19675;SDS011;39539;52.202;9.876;2023-01-06T01:47:35;8.05;;;6.30;;
19675;SDS011;39539;52.202;9.876;2023-01-06T01:52:35;7.32;;;5.82;;
19675;SDS011;39539;52.202;9.876;2023-01-06T01:55:02;6.38;;;5.40;;
19675;SDS011;39539;52.202;9.876;2023-01-06T01:57:40;6.97;;;5.28;;
19675;SDS011;39539;52.202;9.876;2023-01-06T02:00:10;6.00;;;4.03;;
19675;SDS011;39539;52.202;9.876;2023-01-06T02:02:36;5.97;;;5.20;;
19675;SDS011;39539;52.202;9.876;2023-01-06T02:05:02;7.75;;;5.38;;
19675;SDS011;39539;52.202;9.876;2023-01-06T02:07:29;5.93;;;5.22;;
19675;SDS011;39539;52.202;9.876;2023-01-06T02:10:01;6.22;;;5.10;;
19675;SDS011;39539;52.202;9.876;2023-01-06T02:12:48;5.30;;;4.80;;
19675;SDS011;39539;52.202;9.876;2023-01-06T02:15:24;5.95;;;5.20;;
19675;SDS011;39539;52.202;9.876;2023-01-06T02:17:58;6.30;;;5.13;;
19675;SDS011;39539;52.202;9.876;2023-01-06T02:20:43;5.07;;;4.60;;
19675;SDS011;39539;52.202;9.876;2023-01-06T02:32:00;5.10;;;4.43;;
19675;SDS011;39539;52.202;9.876;2023-01-06T02:34:53;5.15;;;4.28;;
19675;SDS011;39539;52.202;9.876;2023-01-06T02:43:25;3.78;;;2.95;;
19675;SDS011;39539;52.202;9.876;2023-01-06T02:46:15;5.13;;;3.13;;
19675;SDS011;39539;52.202;9.876;2023-01-06T02:49:04;4.35;;;3.10;;
19675;SDS011;39539;52.202;9.876;2023-01-06T03:02:35;3.05;;;2.45;;
19675;SDS011;39539;52.202;9.876;2023-01-06T03:05:03;3.63;;;2.20;;
19675;SDS011;39539;52.202;9.876;2023-01-06T03:07:30;3.05;;;2.50;;
19675;SDS011;39539;52.202;9.876;2023-01-06T03:09:56;3.08;;;2.35;;
19675;SDS011;39539;52.202;9.876;2023-01-06T03:15:00;2.70;;;2.50;;
19675;SDS011;39539;52.202;9.876;2023-01-06T03:17:26;2.40;;;2.17;;
19675;SDS011;39539;52.202;9.876;2023-01-06T03:19:51;2.85;;;2.53;;
19675;SDS011;39539;52.202;9.876;2023-01-06T03:22:17;3.85;;;2.47;;
19675;SDS011;39539;52.202;9.876;2023-01-06T03:24:44;3.13;;;2.30;;
19675;SDS011;39539;52.202;9.876;2023-01-06T03:27:10;2.45;;;2.22;;
19675;SDS011;39539;52.202;9.876;2023-01-06T03:29:36;2.53;;;2.00;;
19675;SDS011;39539;52.202;9.876;2023-01-06T03:34:40;3.05;;;2.15;;
19675;SDS011;39539;52.202;9.876;2023-01-06T03:37:15;2.58;;;2.20;;
19675;SDS011;39539;52.202;9.876;2023-01-06T03:42:50;2.42;;;2.22;;
19675;SDS011;39539;52.202;9.876;2023-01-06T03:56:15;3.05;;;2.63;;
19675;SDS011;39539;52.202;9.876;2023-01-06T03:58:51;3.13;;;2.60;;
19675;SDS011;39539;52.202;9.876;2023-01-06T04:01:21;2.50;;;2.30;;
19675;SDS011;39539;52.202;9.876;2023-01-06T04:03:50;2.42;;;2.22;;
19675;SDS011;39539;52.202;9.876;2023-01-06T04:06:17;3.03;;;2.28;;
19675;SDS011;39539;52.202;9.876;2023-01-06T04:08:43;2.42;;;2.20;;
19675;SDS011;39539;52.202;9.876;2023-01-06T04:11:09;2.65;;;2.45;;
19675;SDS011;39539;52.202;9.876;2023-01-06T04:13:54;3.60;;;2.55;;
19675;SDS011;39539;52.202;9.876;2023-01-06T04:16:19;3.65;;;3.00;;
19675;SDS011;39539;52.202;9.876;2023-01-06T04:18:45;2.88;;;2.67;;
19675;SDS011;39539;52.202;9.876;2023-01-06T04:21:11;3.20;;;2.83;;
19675;SDS011;39539;52.202;9.876;2023-01-06T04:23:36;2.72;;;2.40;;
19675;SDS011;39539;52.202;9.876;2023-01-06T04:26:01;3.20;;;2.90;;
19675;SDS011;39539;52.202;9.876;2023-01-06T04:28:27;3.15;;;2.45;;
19675;SDS011;39539;52.202;9.876;2023-01-06T04:30:55;3.45;;;2.38;;
19675;SDS011;39539;52.202;9.876;2023-01-06T04:33:21;2.55;;;2.25;;
19675;SDS011;39539;52.202;9.876;2023-01-06T04:35:47;2.20;;;2.00;;
19675;SDS011;39539;52.202;9.876;2023-01-06T04:38:12;2.63;;;2.42;;
19675;SDS011;39539;52.202;9.876;2023-01-06T04:40:37;2.80;;;2.17;;
19675;SDS011;39539;52.202;9.876;2023-01-06T04:43:03;2.72;;;2.20;;
19675;SDS011;39539;52.202;9.876;2023-01-06T04:45:28;2.35;;;2.10;;
19675;SDS011;39539;52.202;9.876;2023-01-06T04:47:53;2.58;;;2.08;;
19675;SDS011;39539;52.202;9.876;2023-01-06T04:50:19;2.13;;;1.85;;
19675;SDS011;39539;52.202;9.876;2023-01-06T04:52:44;2.22;;;1.98;;
19675;SDS011;39539;52.202;9.876;2023-01-06T04:55:09;2.28;;;1.95;;
19675;SDS011;39539;52.202;9.876;2023-01-06T04:57:35;3.05;;;2.00;;
19675;SDS011;39539;52.202;9.876;2023-01-06T05:00:00;1.67;;;1.58;;
19675;SDS011;39539;52.202;9.876;2023-01-06T05:02:26;1.75;;;1.65;;
19675;SDS011;39539;52.202;9.876;2023-01-06T05:04:51;2.90;;;1.90;;
19675;SDS011;39539;52.202;9.876;2023-01-06T05:07:16;2.08;;;1.60;;
19675;SDS011;39539;52.202;9.876;2023-01-06T05:09:42;2.30;;;1.70;;
19675;SDS011;39539;52.202;9.876;2023-01-06T05:12:07;2.05;;;1.85;;
19675;SDS011;39539;52.202;9.876;2023-01-06T05:14:32;1.65;;;1.55;;
19675;SDS011;39539;52.202;9.876;2023-01-06T05:16:58;1.50;;;1.40;;
19675;SDS011;39539;52.202;9.876;2023-01-06T05:19:23;1.63;;;1.50;;
19675;SDS011;39539;52.202;9.876;2023-01-06T05:21:48;2.35;;;1.83;;
19675;SDS011;39539;52.202;9.876;2023-01-06T05:24:14;1.98;;;1.30;;
19675;SDS011;39539;52.202;9.876;2023-01-06T05:26:39;2.08;;;1.48;;
19675;SDS011;39539;52.202;9.876;2023-01-06T05:29:04;2.38;;;1.20;;
19675;SDS011;39539;52.202;9.876;2023-01-06T05:31:30;2.42;;;1.30;;
19675;SDS011;39539;52.202;9.876;2023-01-06T05:33:55;2.45;;;1.45;;
19675;SDS011;39539;52.202;9.876;2023-01-06T05:36:20;3.03;;;1.40;;
19675;SDS011;39539;52.202;9.876;2023-01-06T05:38:52;1.38;;;1.27;;
19675;SDS011;39539;52.202;9.876;2023-01-06T05:41:18;2.17;;;1.10;;
19675;SDS011;39539;52.202;9.876;2023-01-06T05:43:44;1.95;;;1.38;;
19675;SDS011;39539;52.202;9.876;2023-01-06T05:46:10;3.75;;;1.27;;
19675;SDS011;39539;52.202;9.876;2023-01-06T05:48:36;1.55;;;1.10;;
19675;SDS011;39539;52.202;9.876;2023-01-06T05:51:02;1.48;;;0.90;;
19675;SDS011;39539;52.202;9.876;2023-01-06T05:53:33;2.20;;;0.95;;
19675;SDS011;39539;52.202;9.876;2023-01-06T05:56:00;2.35;;;1.02;;
19675;SDS011;39539;52.202;9.876;2023-01-06T05:58:27;1.08;;;0.90;;
19675;SDS011;39539;52.202;9.876;2023-01-06T06:00:52;2.08;;;0.90;;
19675;SDS011;39539;52.202;9.876;2023-01-06T06:03:18;1.60;;;1.17;;
19675;SDS011;39539;52.202;9.876;2023-01-06T06:05:43;1.67;;;1.00;;
19675;SDS011;39539;52.202;9.876;2023-01-06T06:08:08;2.28;;;1.02;;
19675;SDS011;39539;52.202;9.876;2023-01-06T06:10:34;0.93;;;0.90;;
19675;SDS011;39539;52.202;9.876;2023-01-06T06:12:59;1.45;;;0.93;;
19675;SDS011;39539;52.202;9.876;2023-01-06T06:15:24;2.10;;;1.00;;
19675;SDS011;39539;52.202;9.876;2023-01-06T06:17:50;2.05;;;0.90;;
19675;SDS011;39539;52.202;9.876;2023-01-06T06:20:15;1.70;;;0.80;;
19675;SDS011;39539;52.202;9.876;2023-01-06T06:22:40;0.80;;;0.77;;
19675;SDS011;39539;52.202;9.876;2023-01-06T06:25:06;0.90;;;0.90;;
19675;SDS011;39539;52.202;9.876;2023-01-06T06:27:31;1.67;;;0.95;;
19675;SDS011;39539;52.202;9.876;2023-01-06T06:29:57;1.33;;;0.75;;
19675;SDS011;39539;52.202;9.876;2023-01-06T06:32:22;4.03;;;1.10;;
19675;SDS011;39539;52.202;9.876;2023-01-06T06:34:47;0.80;;;0.80;;
19675;SDS011;39539;52.202;9.876;2023-01-06T06:37:13;1.13;;;0.70;;
19675;SDS011;39539;52.202;9.876;2023-01-06T06:39:38;1.80;;;0.95;;
19675;SDS011;39539;52.202;9.876;2023-01-06T06:42:04;2.92;;;1.10;;
19675;SDS011;39539;52.202;9.876;2023-01-06T06:44:30;3.05;;;1.05;;
19675;SDS011;39539;52.202;9.876;2023-01-06T06:46:56;1.48;;;1.02;;
19675;SDS011;39539;52.202;9.876;2023-01-06T06:49:22;1.63;;;1.02;;
19675;SDS011;39539;52.202;9.876;2023-01-06T06:51:47;1.08;;;0.93;;
19675;SDS011;39539;52.202;9.876;2023-01-06T06:54:13;1.25;;;1.00;;
19675;SDS011;39539;52.202;9.876;2023-01-06T06:56:38;2.28;;;0.98;;
19675;SDS011;39539;52.202;9.876;2023-01-06T06:59:04;2.47;;;1.25;;
19675;SDS011;39539;52.202;9.876;2023-01-06T07:01:29;1.13;;;0.90;;
19675;SDS011;39539;52.202;9.876;2023-01-06T07:03:56;1.67;;;1.20;;
19675;SDS011;39539;52.202;9.876;2023-01-06T07:06:22;1.75;;;1.15;;
19675;SDS011;39539;52.202;9.876;2023-01-06T07:08:49;1.42;;;1.00;;
19675;SDS011;39539;52.202;9.876;2023-01-06T07:11:15;1.38;;;1.08;;
19675;SDS011;39539;52.202;9.876;2023-01-06T07:13:41;1.33;;;1.20;;
19675;SDS011;39539;52.202;9.876;2023-01-06T07:16:06;1.50;;;1.10;;
19675;SDS011;39539;52.202;9.876;2023-01-06T07:18:32;2.70;;;1.30;;
19675;SDS011;39539;52.202;9.876;2023-01-06T07:20:57;2.53;;;1.33;;
19675;SDS011;39539;52.202;9.876;2023-01-06T07:23:23;1.48;;;1.10;;
19675;SDS011;39539;52.202;9.876;2023-01-06T07:25:53;1.45;;;1.02;;
19675;SDS011;39539;52.202;9.876;2023-01-06T07:28:19;1.63;;;1.00;;
19675;SDS011;39539;52.202;9.876;2023-01-06T07:30:45;1.23;;;1.05;;
19675;SDS011;39539;52.202;9.876;2023-01-06T07:33:10;2.70;;;1.20;;
19675;SDS011;39539;52.202;9.876;2023-01-06T07:35:36;2.03;;;1.20;;
19675;SDS011;39539;52.202;9.876;2023-01-06T07:38:04;1.20;;;1.10;;
19675;SDS011;39539;52.202;9.876;2023-01-06T07:40:31;1.30;;;1.05;;
19675;SDS011;39539;52.202;9.876;2023-01-06T07:42:56;2.35;;;1.23;;
19675;SDS011;39539;52.202;9.876;2023-01-06T07:45:22;1.50;;;1.40;;
19675;SDS011;39539;52.202;9.876;2023-01-06T07:47:47;2.60;;;1.27;;
19675;SDS011;39539;52.202;9.876;2023-01-06T07:50:13;2.22;;;1.30;;
19675;SDS011;39539;52.202;9.876;2023-01-06T07:52:38;1.50;;;1.20;;
19675;SDS011;39539;52.202;9.876;2023-01-06T07:55:04;2.47;;;1.30;;
19675;SDS011;39539;52.202;9.876;2023-01-06T07:57:31;3.83;;;1.05;;
19675;SDS011;39539;52.202;9.876;2023-01-06T07:59:56;1.70;;;1.50;;
19675;SDS011;39539;52.202;9.876;2023-01-06T08:02:21;1.42;;;1.17;;
19675;SDS011;39539;52.202;9.876;2023-01-06T08:04:47;1.67;;;1.10;;
19675;SDS011;39539;52.202;9.876;2023-01-06T08:07:13;2.85;;;1.10;;
19675;SDS011;39539;52.202;9.876;2023-01-06T08:09:39;1.52;;;1.15;;
19675;SDS011;39539;52.202;9.876;2023-01-06T08:12:05;2.22;;;1.17;;
19675;SDS011;39539;52.202;9.876;2023-01-06T08:14:31;2.40;;;1.13;;
19675;SDS011;39539;52.202;9.876;2023-01-06T08:16:56;1.33;;;1.00;;
19675;SDS011;39539;52.202;9.876;2023-01-06T08:19:22;2.33;;;1.42;;
19675;SDS011;39539;52.202;9.876;2023-01-06T08:21:47;2.20;;;1.23;;
19675;SDS011;39539;52.202;9.876;2023-01-06T08:24:12;2.05;;;1.10;;
19675;SDS011;39539;52.202;9.876;2023-01-06T08:26:38;1.05;;;1.00;;
19675;SDS011;39539;52.202;9.876;2023-01-06T08:29:03;1.52;;;1.02;;
19675;SDS011;39539;52.202;9.876;2023-01-06T08:31:29;2.00;;;1.00;;
19675;SDS011;39539;52.202;9.876;2023-01-06T08:33:54;0.85;;;0.80;;
19675;SDS011;39539;52.202;9.876;2023-01-06T08:36:21;1.67;;;1.10;;
19675;SDS011;39539;52.202;9.876;2023-01-06T08:38:47;1.73;;;1.05;;
19675;SDS011;39539;52.202;9.876;2023-01-06T08:41:13;1.92;;;1.10;;
19675;SDS011;39539;52.202;9.876;2023-01-06T08:43:39;1.48;;;1.10;;
19675;SDS011;39539;52.202;9.876;2023-01-06T08:46:06;2.03;;;1.30;;
19675;SDS011;39539;52.202;9.876;2023-01-06T08:48:35;1.48;;;1.23;;
19675;SDS011;39539;52.202;9.876;2023-01-06T08:51:05;2.30;;;1.20;;
19675;SDS011;39539;52.202;9.876;2023-01-06T08:53:32;0.77;;;0.75;;
19675;SDS011;39539;52.202;9.876;2023-01-06T08:55:58;1.58;;;1.00;;
19675;SDS011;39539;52.202;9.876;2023-01-06T08:58:24;1.80;;;1.10;;
19675;SDS011;39539;52.202;9.876;2023-01-06T09:00:50;1.58;;;0.93;;
19675;SDS011;39539;52.202;9.876;2023-01-06T09:03:16;1.27;;;0.90;;
19675;SDS011;39539;52.202;9.876;2023-01-06T09:05:42;1.83;;;0.90;;
19675;SDS011;39539;52.202;9.876;2023-01-06T09:08:07;1.65;;;1.08;;
19675;SDS011;39539;52.202;9.876;2023-01-06T09:10:35;2.50;;;1.08;;
19675;SDS011;39539;52.202;9.876;2023-01-06T09:13:01;1.30;;;1.20;;
19675;SDS011;39539;52.202;9.876;2023-01-06T09:15:27;2.13;;;1.13;;
19675;SDS011;39539;52.202;9.876;2023-01-06T09:17:53;1.30;;;1.15;;
19675;SDS011;39539;52.202;9.876;2023-01-06T09:20:19;1.02;;;0.75;;
19675;SDS011;39539;52.202;9.876;2023-01-06T09:22:44;1.52;;;0.82;;
19675;SDS011;39539;52.202;9.876;2023-01-06T09:25:10;0.80;;;0.80;;
19675;SDS011;39539;52.202;9.876;2023-01-06T09:27:35;0.98;;;0.80;;
19675;SDS011;39539;52.202;9.876;2023-01-06T09:30:00;1.38;;;1.00;;
19675;SDS011;39539;52.202;9.876;2023-01-06T09:32:26;1.83;;;1.10;;
19675;SDS011;39539;52.202;9.876;2023-01-06T09:34:51;1.83;;;1.00;;
19675;SDS011;39539;52.202;9.876;2023-01-06T09:37:17;1.15;;;0.80;;
19675;SDS011;39539;52.202;9.876;2023-01-06T09:39:42;1.42;;;1.00;;
19675;SDS011;39539;52.202;9.876;2023-01-06T09:47:27;0.75;;;0.70;;
19675;SDS011;39539;52.202;9.876;2023-01-06T09:50:07;1.15;;;0.80;;
19675;SDS011;39539;52.202;9.876;2023-01-06T09:52:40;1.33;;;0.85;;
19675;SDS011;39539;52.202;9.876;2023-01-06T09:55:18;2.15;;;0.90;;
19675;SDS011;39539;52.202;9.876;2023-01-06T09:57:55;1.40;;;0.90;;
19675;SDS011;39539;52.202;9.876;2023-01-06T10:00:44;0.68;;;0.60;;
19675;SDS011;39539;52.202;9.876;2023-01-06T10:03:13;1.42;;;0.88;;
19675;SDS011;39539;52.202;9.876;2023-01-06T10:05:45;2.22;;;0.80;;
19675;SDS011;39539;52.202;9.876;2023-01-06T10:17:00;1.08;;;0.80;;
19675;SDS011;39539;52.202;9.876;2023-01-06T10:19:48;0.90;;;0.85;;
19675;SDS011;39539;52.202;9.876;2023-01-06T10:27:39;0.80;;;0.80;;
19675;SDS011;39539;52.202;9.876;2023-01-06T10:30:17;0.88;;;0.88;;
19675;SDS011;39539;52.202;9.876;2023-01-06T10:32:49;1.30;;;0.90;;
19675;SDS011;39539;52.202;9.876;2023-01-06T10:35:17;1.23;;;1.00;;
19675;SDS011;39539;52.202;9.876;2023-01-06T10:37:47;0.80;;;0.80;;
19675;SDS011;39539;52.202;9.876;2023-01-06T10:45:40;0.80;;;0.80;;
19675;SDS011;39539;52.202;9.876;2023-01-06T10:48:21;1.30;;;0.93;;
19675;SDS011;39539;52.202;9.876;2023-01-06T10:50:51;1.15;;;1.00;;
19675;SDS011;39539;52.202;9.876;2023-01-06T10:53:16;0.90;;;0.90;;
19675;SDS011;39539;52.202;9.876;2023-01-06T11:01:21;0.82;;;0.80;;
19675;SDS011;39539;52.202;9.876;2023-01-06T11:03:41;0.90;;;0.90;;
19675;SDS011;39539;52.202;9.876;2023-01-06T11:06:24;1.92;;;0.90;;
19675;SDS011;39539;52.202;9.876;2023-01-06T11:08:52;1.25;;;1.08;;
19675;SDS011;39539;52.202;9.876;2023-01-06T11:11:18;1.63;;;1.05;;
19675;SDS011;39539;52.202;9.876;2023-01-06T11:13:48;1.30;;;1.20;;
19675;SDS011;39539;52.202;9.876;2023-01-06T11:16:20;1.35;;;1.10;;
19675;SDS011;39539;52.202;9.876;2023-01-06T11:18:53;1.25;;;1.15;;
19675;SDS011;39539;52.202;9.876;2023-01-06T11:21:20;1.60;;;1.50;;
19675;SDS011;39539;52.202;9.876;2023-01-06T11:23:46;1.13;;;1.10;;
19675;SDS011;39539;52.202;9.876;2023-01-06T11:26:19;1.48;;;1.38;;
19675;SDS011;39539;52.202;9.876;2023-01-06T11:28:47;1.27;;;1.27;;
19675;SDS011;39539;52.202;9.876;2023-01-06T11:31:18;1.63;;;1.52;;
19675;SDS011;39539;52.202;9.876;2023-01-06T11:33:53;1.70;;;1.60;;
19675;SDS011;39539;52.202;9.876;2023-01-06T11:36:24;1.73;;;1.50;;
19675;SDS011;39539;52.202;9.876;2023-01-06T11:41:26;1.30;;;1.20;;
19675;SDS011;39539;52.202;9.876;2023-01-06T11:44:01;0.90;;;0.90;;
19675;SDS011;39539;52.202;9.876;2023-01-06T11:46:33;0.90;;;0.90;;
19675;SDS011;39539;52.202;9.876;2023-01-06T11:49:00;0.98;;;0.90;;
19675;SDS011;39539;52.202;9.876;2023-01-06T11:54:11;0.90;;;0.90;;
19675;SDS011;39539;52.202;9.876;2023-01-06T11:56:59;0.95;;;0.95;;
19675;SDS011;39539;52.202;9.876;2023-01-06T12:00:11;1.43;;;1.33;;
19675;SDS011;39539;52.202;9.876;2023-01-06T12:02:24;1.67;;;1.58;;
19675;SDS011;39539;52.202;9.876;2023-01-06T12:04:59;1.60;;;1.50;;
19675;SDS011;39539;52.202;9.876;2023-01-06T12:07:45;1.70;;;1.60;;
19675;SDS011;39539;52.202;9.876;2023-01-06T12:10:17;1.80;;;1.70;;
19675;SDS011;39539;52.202;9.876;2023-01-06T12:12:45;2.20;;;2.10;;
19675;SDS011;39539;52.202;9.876;2023-01-06T12:15:12;2.63;;;2.20;;
19675;SDS011;39539;52.202;9.876;2023-01-06T12:17:47;2.20;;;2.10;;
19675;SDS011;39539;52.202;9.876;2023-01-06T12:20:20;2.20;;;2.10;;
19675;SDS011;39539;52.202;9.876;2023-01-06T12:22:51;2.40;;;2.30;;
19675;SDS011;39539;52.202;9.876;2023-01-06T12:25:57;2.20;;;2.10;;
19675;SDS011;39539;52.202;9.876;2023-01-06T12:28:44;2.42;;;2.22;;
19675;SDS011;39539;52.202;9.876;2023-01-06T12:34:34;2.50;;;2.30;;
19675;SDS011;39539;52.202;9.876;2023-01-06T12:37:48;2.30;;;2.05;;
19675;SDS011;39539;52.202;9.876;2023-01-06T12:43:14;2.40;;;2.25;;
19675;SDS011;39539;52.202;9.876;2023-01-06T12:51:22;2.60;;;2.50;;
19675;SDS011;39539;52.202;9.876;2023-01-06T12:53:56;2.70;;;2.60;;
19675;SDS011;39539;52.202;9.876;2023-01-06T13:07:52;2.33;;;2.20;;
19675;SDS011;39539;52.202;9.876;2023-01-06T13:16:04;3.05;;;2.30;;
19675;SDS011;39539;52.202;9.876;2023-01-06T13:18:40;2.10;;;2.00;;
19675;SDS011;39539;52.202;9.876;2023-01-06T13:21:16;2.20;;;2.10;;
19675;SDS011;39539;52.202;9.876;2023-01-06T13:29:31;2.60;;;2.50;;
19675;SDS011;39539;52.202;9.876;2023-01-06T13:35:04;3.10;;;2.90;;
19675;SDS011;39539;52.202;9.876;2023-01-06T13:40:19;3.00;;;2.80;;
19675;SDS011;39539;52.202;9.876;2023-01-06T13:42:59;3.50;;;3.20;;
19675;SDS011;39539;52.202;9.876;2023-01-06T13:45:31;3.55;;;3.35;;
19675;SDS011;39539;52.202;9.876;2023-01-06T13:48:02;3.60;;;3.30;;
19675;SDS011;39539;52.202;9.876;2023-01-06T13:50:32;3.40;;;3.20;;
19675;SDS011;39539;52.202;9.876;2023-01-06T13:52:59;3.72;;;3.42;;
19675;SDS011;39539;52.202;9.876;2023-01-06T13:55:26;3.85;;;3.55;;
19675;SDS011;39539;52.202;9.876;2023-01-06T13:57:54;3.22;;;3.00;;
19675;SDS011;39539;52.202;9.876;2023-01-06T14:00:23;3.05;;;2.88;;
19675;SDS011;39539;52.202;9.876;2023-01-06T14:07:54;2.55;;;2.42;;
19675;SDS011;39539;52.202;9.876;2023-01-06T14:12:58;2.38;;;2.22;;
19675;SDS011;39539;52.202;9.876;2023-01-06T14:15:29;2.42;;;2.33;;
19675;SDS011;39539;52.202;9.876;2023-01-06T14:17:57;3.08;;;2.83;;
19675;SDS011;39539;52.202;9.876;2023-01-06T14:23:19;3.15;;;2.90;;
19675;SDS011;39539;52.202;9.876;2023-01-06T14:25:50;3.28;;;3.08;;
19675;SDS011;39539;52.202;9.876;2023-01-06T14:30:44;3.50;;;3.28;;
19675;SDS011;39539;52.202;9.876;2023-01-06T14:33:24;3.80;;;3.50;;
19675;SDS011;39539;52.202;9.876;2023-01-06T14:36:05;3.88;;;3.67;;
19675;SDS011;39539;52.202;9.876;2023-01-06T14:44:11;4.65;;;4.35;;
19675;SDS011;39539;52.202;9.876;2023-01-06T14:46:42;4.65;;;4.30;;
19675;SDS011;39539;52.202;9.876;2023-01-06T14:49:20;4.80;;;4.50;;
19675;SDS011;39539;52.202;9.876;2023-01-06T14:51:51;4.90;;;4.60;;
19675;SDS011;39539;52.202;9.876;2023-01-06T14:54:27;4.85;;;4.55;;
19675;SDS011;39539;52.202;9.876;2023-01-06T14:56:57;5.93;;;5.40;;
19675;SDS011;39539;52.202;9.876;2023-01-06T14:59:24;4.97;;;4.68;;
19675;SDS011;39539;52.202;9.876;2023-01-06T15:02:32;5.22;;;4.82;;
19675;SDS011;39539;52.202;9.876;2023-01-06T15:04:40;5.60;;;5.30;;
19675;SDS011;39539;52.202;9.876;2023-01-06T15:07:15;5.90;;;5.50;;
19675;SDS011;39539;52.202;9.876;2023-01-06T15:09:43;5.57;;;5.28;;
19675;SDS011;39539;52.202;9.876;2023-01-06T15:12:29;5.78;;;5.38;;
19675;SDS011;39539;52.202;9.876;2023-01-06T15:14:56;6.18;;;5.88;;
19675;SDS011;39539;52.202;9.876;2023-01-06T15:17:37;6.32;;;5.93;;
19675;SDS011;39539;52.202;9.876;2023-01-06T15:20:03;6.32;;;5.93;;
19675;SDS011;39539;52.202;9.876;2023-01-06T15:22:36;6.22;;;5.80;;
19675;SDS011;39539;52.202;9.876;2023-01-06T15:25:03;6.57;;;6.18;;
19675;SDS011;39539;52.202;9.876;2023-01-06T15:27:29;6.50;;;6.10;;
19675;SDS011;39539;52.202;9.876;2023-01-06T15:29:55;6.72;;;6.30;;
19675;SDS011;39539;52.202;9.876;2023-01-06T15:32:22;7.35;;;6.95;;
19675;SDS011;39539;52.202;9.876;2023-01-06T15:34:49;9.18;;;8.57;;
19675;SDS011;39539;52.202;9.876;2023-01-06T15:37:25;9.32;;;8.73;;
19675;SDS011;39539;52.202;9.876;2023-01-06T15:39:55;10.02;;;9.25;;
19675;SDS011;39539;52.202;9.876;2023-01-06T15:42:22;9.50;;;8.82;;
19675;SDS011;39539;52.202;9.876;2023-01-06T15:44:53;9.65;;;8.95;;
19675;SDS011;39539;52.202;9.876;2023-01-06T15:49:58;8.60;;;8.10;;
19675;SDS011;39539;52.202;9.876;2023-01-06T15:52:37;8.13;;;7.63;;
19675;SDS011;39539;52.202;9.876;2023-01-06T15:55:18;8.45;;;7.78;;
19675;SDS011;39539;52.202;9.876;2023-01-06T16:00:30;8.63;;;8.00;;
19675;SDS011;39539;52.202;9.876;2023-01-06T16:02:59;8.65;;;8.05;;
19675;SDS011;39539;52.202;9.876;2023-01-06T16:05:38;8.18;;;7.60;;
19675;SDS011;39539;52.202;9.876;2023-01-06T16:08:39;9.80;;;8.98;;
19675;SDS011;39539;52.202;9.876;2023-01-06T16:11:07;9.50;;;8.80;;
19675;SDS011;39539;52.202;9.876;2023-01-06T16:13:40;10.27;;;9.57;;
19675;SDS011;39539;52.202;9.876;2023-01-06T16:16:30;10.43;;;9.73;;
19675;SDS011;39539;52.202;9.876;2023-01-06T16:19:08;10.23;;;9.52;;
19675;SDS011;39539;52.202;9.876;2023-01-06T16:21:38;9.88;;;9.27;;
19675;SDS011;39539;52.202;9.876;2023-01-06T16:24:13;9.82;;;9.13;;
19675;SDS011;39539;52.202;9.876;2023-01-06T16:26:45;10.48;;;9.80;;
19675;SDS011;39539;52.202;9.876;2023-01-06T16:29:33;10.73;;;9.88;;
19675;SDS011;39539;52.202;9.876;2023-01-06T16:35:01;11.65;;;10.85;;
19675;SDS011;39539;52.202;9.876;2023-01-06T16:37:34;11.00;;;10.25;;
19675;SDS011;39539;52.202;9.876;2023-01-06T16:39:59;10.23;;;9.52;;
19675;SDS011;39539;52.202;9.876;2023-01-06T16:42:27;8.60;;;8.00;;
19675;SDS011;39539;52.202;9.876;2023-01-06T16:47:43;8.52;;;7.80;;
19675;SDS011;39539;52.202;9.876;2023-01-06T16:50:31;8.63;;;8.02;;
19675;SDS011;39539;52.202;9.876;2023-01-06T16:53:16;8.95;;;8.38;;
19675;SDS011;39539;52.202;9.876;2023-01-06T16:55:45;9.02;;;8.43;;
19675;SDS011;39539;52.202;9.876;2023-01-06T16:58:19;9.60;;;8.85;;
19675;SDS011;39539;52.202;9.876;2023-01-06T17:00:46;9.50;;;8.80;;
19675;SDS011;39539;52.202;9.876;2023-01-06T17:03:28;10.40;;;9.52;;
19675;SDS011;39539;52.202;9.876;2023-01-06T17:05:55;10.65;;;9.75;;
19675;SDS011;39539;52.202;9.876;2023-01-06T17:08:31;10.25;;;9.35;;
19675;SDS011;39539;52.202;9.876;2023-01-06T17:11:01;10.25;;;9.45;;
19675;SDS011;39539;52.202;9.876;2023-01-06T17:13:35;9.55;;;8.85;;
19675;SDS011;39539;52.202;9.876;2023-01-06T17:16:34;9.93;;;9.23;;
19675;SDS011;39539;52.202;9.876;2023-01-06T17:21:33;9.82;;;9.13;;
19675;SDS011;39539;52.202;9.876;2023-01-06T17:37:28;12.45;;;11.45;;
19675;SDS011;39539;52.202;9.876;2023-01-06T17:39:54;12.40;;;11.48;;
19675;SDS011;39539;52.202;9.876;2023-01-06T17:44:54;12.73;;;11.65;;
19675;SDS011;39539;52.202;9.876;2023-01-06T17:49:47;12.10;;;11.20;;
19675;SDS011;39539;52.202;9.876;2023-01-06T17:52:16;11.63;;;10.82;;
19675;SDS011;39539;52.202;9.876;2023-01-06T17:54:52;11.45;;;10.55;;
19675;SDS011;39539;52.202;9.876;2023-01-06T17:57:39;10.82;;;9.95;;
19675;SDS011;39539;52.202;9.876;2023-01-06T18:00:17;10.98;;;10.18;;
19675;SDS011;39539;52.202;9.876;2023-01-06T18:02:46;11.75;;;10.85;;
19675;SDS011;39539;52.202;9.876;2023-01-06T18:07:44;12.07;;;11.27;;
19675;SDS011;39539;52.202;9.876;2023-01-06T18:10:12;11.88;;;11.07;;
19675;SDS011;39539;52.202;9.876;2023-01-06T18:12:40;11.50;;;10.60;;
19675;SDS011;39539;52.202;9.876;2023-01-06T18:17:50;11.77;;;10.80;;
19675;SDS011;39539;52.202;9.876;2023-01-06T18:20:15;12.15;;;11.25;;
19675;SDS011;39539;52.202;9.876;2023-01-06T18:22:40;11.57;;;10.63;;
19675;SDS011;39539;52.202;9.876;2023-01-06T18:25:06;11.95;;;10.85;;
19675;SDS011;39539;52.202;9.876;2023-01-06T18:27:41;12.35;;;11.30;;
19675;SDS011;39539;52.202;9.876;2023-01-06T18:30:24;10.50;;;9.70;;
19675;SDS011;39539;52.202;9.876;2023-01-06T18:32:53;11.85;;;10.85;;